sensor_id;sensor_type;location;lat;lon;timestamp;temperature;humidity
63260;DHT22;49390;51.380;0.098;2024-03-25T20:07:52;10.20;81.60
63260;DHT22;49390;51.380;0.098;2024-03-25T20:10:20;10.10;82.10
63260;DHT22;49390;51.380;0.098;2024-03-25T20:12:47;10.20;82.40
63260;DHT22;49390;51.380;0.098;2024-03-25T20:15:14;10.10;82.70
63260;DHT22;49390;51.380;0.098;2024-03-25T20:17:41;10.10;82.90
63260;DHT22;49390;51.380;0.098;2024-03-25T20:20:09;10.10;83.20
63260;DHT22;49390;51.380;0.098;2024-03-25T20:22:38;10.10;83.40
63260;DHT22;49390;51.380;0.098;2024-03-25T20:25:05;10.00;83.70
63260;DHT22;49390;51.380;0.098;2024-03-25T20:27:33;9.90;84.00
63260;DHT22;49390;51.380;0.098;2024-03-25T20:30:00;10.00;84.50
63260;DHT22;49390;51.380;0.098;2024-03-25T20:32:29;10.00;84.70
63260;DHT22;49390;51.380;0.098;2024-03-25T20:34:56;10.00;85.10
63260;DHT22;49390;51.380;0.098;2024-03-25T20:37:29;10.00;85.30
63260;DHT22;49390;51.380;0.098;2024-03-25T20:39:56;10.00;85.50
63260;DHT22;49390;51.380;0.098;2024-03-25T20:42:23;9.90;85.50
63260;DHT22;49390;51.380;0.098;2024-03-25T20:44:50;9.90;85.70
63260;DHT22;49390;51.380;0.098;2024-03-25T20:47:17;9.90;86.00
63260;DHT22;49390;51.380;0.098;2024-03-25T20:49:45;9.90;86.20
63260;DHT22;49390;51.380;0.098;2024-03-25T20:52:11;9.90;86.50
63260;DHT22;49390;51.380;0.098;2024-03-25T20:54:39;9.90;86.80
63260;DHT22;49390;51.380;0.098;2024-03-25T20:57:05;9.90;87.00
63260;DHT22;49390;51.380;0.098;2024-03-25T20:59:32;9.90;87.20
63260;DHT22;49390;51.380;0.098;2024-03-25T21:01:59;9.80;87.40
63260;DHT22;49390;51.380;0.098;2024-03-25T21:04:26;9.80;87.50
63260;DHT22;49390;51.380;0.098;2024-03-25T21:06:53;9.80;87.60
63260;DHT22;49390;51.380;0.098;2024-03-25T21:09:20;9.90;87.70
63260;DHT22;49390;51.380;0.098;2024-03-25T21:12:14;9.80;87.20
63260;DHT22;49390;51.380;0.098;2024-03-25T21:14:42;9.80;87.90
63260;DHT22;49390;51.380;0.098;2024-03-25T21:17:09;9.80;88.10
63260;DHT22;49390;51.380;0.098;2024-03-25T21:19:37;9.90;88.20
63260;DHT22;49390;51.380;0.098;2024-03-25T21:22:03;9.80;88.20
63260;DHT22;49390;51.380;0.098;2024-03-25T21:24:31;9.90;88.20
63260;DHT22;49390;51.380;0.098;2024-03-25T21:26:57;9.90;88.10
63260;DHT22;49390;51.380;0.098;2024-03-25T21:29:24;9.90;88.10
63260;DHT22;49390;51.380;0.098;2024-03-25T21:31:51;9.90;88.10
63260;DHT22;49390;51.380;0.098;2024-03-25T21:34:18;9.90;88.00
63260;DHT22;49390;51.380;0.098;2024-03-25T21:36:45;9.90;87.90
63260;DHT22;49390;51.380;0.098;2024-03-25T21:39:12;10.00;87.90
63260;DHT22;49390;51.380;0.098;2024-03-25T21:41:39;9.90;87.70
63260;DHT22;49390;51.380;0.098;2024-03-25T21:44:08;10.00;87.70
63260;DHT22;49390;51.380;0.098;2024-03-25T21:46:35;9.90;87.50
63260;DHT22;49390;51.380;0.098;2024-03-25T21:49:02;9.80;87.30
63260;DHT22;49390;51.380;0.098;2024-03-25T21:51:29;9.90;87.20
63260;DHT22;49390;51.380;0.098;2024-03-25T21:53:56;9.90;87.00
63260;DHT22;49390;51.380;0.098;2024-03-25T21:56:23;9.90;86.80
63260;DHT22;49390;51.380;0.098;2024-03-25T21:58:50;9.90;86.60
63260;DHT22;49390;51.380;0.098;2024-03-25T22:01:54;9.90;85.90
63260;DHT22;49390;51.380;0.098;2024-03-25T22:04:22;9.90;86.40
63260;DHT22;49390;51.380;0.098;2024-03-25T22:06:48;9.80;86.30
63260;DHT22;49390;51.380;0.098;2024-03-25T22:09:16;9.90;86.30
63260;DHT22;49390;51.380;0.098;2024-03-25T22:11:42;9.80;86.10
63260;DHT22;49390;51.380;0.098;2024-03-25T22:14:10;9.80;86.80
63260;DHT22;49390;51.380;0.098;2024-03-25T22:16:36;9.80;85.90
63260;DHT22;49390;51.380;0.098;2024-03-25T22:19:03;9.80;85.80
63260;DHT22;49390;51.380;0.098;2024-03-25T22:21:30;9.80;85.70
63260;DHT22;49390;51.380;0.098;2024-03-25T22:23:57;9.80;85.70
63260;DHT22;49390;51.380;0.098;2024-03-25T22:26:24;9.80;85.60
63260;DHT22;49390;51.380;0.098;2024-03-25T22:28:51;9.80;85.50
63260;DHT22;49390;51.380;0.098;2024-03-25T22:31:18;9.70;85.40
63260;DHT22;49390;51.380;0.098;2024-03-25T22:33:45;9.70;85.40
63260;DHT22;49390;51.380;0.098;2024-03-25T22:36:12;9.70;85.30
63260;DHT22;49390;51.380;0.098;2024-03-25T22:38:39;9.70;85.30
63260;DHT22;49390;51.380;0.098;2024-03-25T22:41:07;9.70;85.20
63260;DHT22;49390;51.380;0.098;2024-03-25T22:43:34;9.70;85.20
63260;DHT22;49390;51.380;0.098;2024-03-25T22:46:01;9.60;85.10
63260;DHT22;49390;51.380;0.098;2024-03-25T22:48:28;9.70;85.10
63260;DHT22;49390;51.380;0.098;2024-03-25T22:50:57;9.60;85.00
63260;DHT22;49390;51.380;0.098;2024-03-25T22:53:25;9.70;85.00
63260;DHT22;49390;51.380;0.098;2024-03-25T22:56:00;9.70;85.00
63260;DHT22;49390;51.380;0.098;2024-03-25T22:58:28;9.60;84.80
63260;DHT22;49390;51.380;0.098;2024-03-25T23:00:55;9.60;84.80
63260;DHT22;49390;51.380;0.098;2024-03-25T23:03:23;9.60;84.80
63260;DHT22;49390;51.380;0.098;2024-03-25T23:06:04;9.60;84.30
63260;DHT22;49390;51.380;0.098;2024-03-25T23:08:33;9.60;84.90
63260;DHT22;49390;51.380;0.098;2024-03-25T23:11:00;9.60;84.80
63260;DHT22;49390;51.380;0.098;2024-03-25T23:13:31;9.60;84.80
63260;DHT22;49390;51.380;0.098;2024-03-25T23:15:58;9.60;84.80
63260;DHT22;49390;51.380;0.098;2024-03-25T23:18:25;9.60;84.80
63260;DHT22;49390;51.380;0.098;2024-03-25T23:20:52;9.60;84.80
63260;DHT22;49390;51.380;0.098;2024-03-25T23:23:20;9.60;84.70
63260;DHT22;49390;51.380;0.098;2024-03-25T23:25:47;9.60;84.70
63260;DHT22;49390;51.380;0.098;2024-03-25T23:28:14;9.60;84.70
63260;DHT22;49390;51.380;0.098;2024-03-25T23:30:41;9.60;84.70
63260;DHT22;49390;51.380;0.098;2024-03-25T23:33:09;9.60;84.60
63260;DHT22;49390;51.380;0.098;2024-03-25T23:35:36;9.60;84.70
63260;DHT22;49390;51.380;0.098;2024-03-25T23:38:04;9.60;84.60
63260;DHT22;49390;51.380;0.098;2024-03-25T23:40:31;9.50;84.60
63260;DHT22;49390;51.380;0.098;2024-03-25T23:42:58;9.50;84.50
63260;DHT22;49390;51.380;0.098;2024-03-25T23:45:26;9.50;84.50
63260;DHT22;49390;51.380;0.098;2024-03-25T23:47:53;9.50;84.40
63260;DHT22;49390;51.380;0.098;2024-03-25T23:50:20;9.50;84.30
63260;DHT22;49390;51.380;0.098;2024-03-25T23:52:49;9.50;84.30
63260;DHT22;49390;51.380;0.098;2024-03-25T23:55:16;9.50;84.20
63260;DHT22;49390;51.380;0.098;2024-03-25T23:57:43;9.50;84.20
